Buena Vista, Wisconsin
Current Conditions -  °F | °C
As of 12:15 PM on Wednesday 28 Jan 2015 (Local Time) from KSTE Reporting Station
Overcast Overcast  
Wind Chill: 13°   Ceiling: 1200
Heat Index: 25°   Visibility: 10mi
Dew Point: 20°   Wind: 13mph
Humidity: 81%   Direction: 160°SSE
Pressure: 30.07"   Gusts: NA
Location:  44.4117°N, 89.5378°W
Report Text: KSTE 281815Z AUTO 16011KT 10SM OVC012 M04/M07 A3007 RMK AO2 T10401068
Loading
Personal Weather Stations






























Interactive Weather Map New forecast layout! Learn more

10-Day Weather Forecast

Advertisements
Track Severe Weather on mobile